Airfield :
LOGIN :

Register | Disclaimer

   EN    FR    IT 

 










Legend :    VFR   Marginal VFR   IFR   Intensive IFR   Very Intensive IFR
Visi :
Ceiling :
>= 8 km
>= 3000ft
5 to 8 km
1000 to 3000 ft
1500m to 5 km
500 to 1000 ft
800 to 1500m
200 to 500 ft
< 800m
< 200 ft
Symbols :   Thunderstorms  Fog  Heavy snow  Heavy precipitations  Wind > 20 kt
SIGMETs :     Misc.  Thunderstorms  Icing  Turbulence  Mountain Waves  Volcanic Ashes






- Airport Elevation : 16 ft
- IATA code : SDR


LEXJ - Santander Cantabria

CURRENT METAR :
  • 160430Z 20016G27KT 160V260 CAVOK 19/09 Q1012

EXPIRED METARs :
  • 160400Z 21013G24KT 150V260 CAVOK 19/09 Q1012
  • 160330Z 21013G23KT 170V250 CAVOK 19/09 Q1012
  • 160300Z AUTO 20016G26KT 160V250 8000 NSC 19/10 Q1012
  • 160230Z AUTO 20017G27KT 160V260 8000 NSC 19/09 Q1012
  • 160200Z AUTO 20016G28KT 170V250 8000 NSC 18/09 Q1013

TAF TAF LEXJ
Valid from the 16 at 03:00 until the 17 at 03:00 UTC


160200Z 1603/1703 21015KT CAVOK TX23/1615Z TN15/1703Z
TEMPO 1603/1618 21018G30KT
BECMG 1618/1622 VRB05KT



MET'MAP, your aeronautical weather chart ! - Copyright ORBIFLY December 2007 - Disclaimer

ORBIFLY MET'MAP TEAM :

Programming & Development : Alexandra Zaïnal
Concept & Development : Baudouin d'Aumeries
Co-Development & Prog : Marc-Olivier Méhu
Technical & hardware support : Manuel Goepfert

Contact : metmap@orbifly.com




SOURCES & CREDITS :

   NOAA